CDT,Max TemperatureF,Mean TemperatureF,Min TemperatureF,Max Dew PointF,MeanDew PointF,Min DewpointF,Max Humidity, Mean Humidity, Min Humidity, Max Sea Level PressureIn, Mean Sea Level PressureIn, Min Sea Level PressureIn, Max VisibilityMiles, Mean VisibilityMiles, Min VisibilityMiles, Max Wind SpeedMPH, Mean Wind SpeedMPH, Max Gust SpeedMPH,PrecipitationIn, CloudCover, Events, WindDirDegrees
2014-3-1,55,48,41,39,35,29,76,62,47,30.16,30.10,30.06,10,10,7,15,3,,0.00,7,,72
2014-3-2,39,27,15,28,17,6,86,73,65,30.29,30.19,30.09,10,4,1,29,17,37,0.90,8,Rain-Snow-Thunderstorm,8
2014-3-3,27,18,8,6,3,-1,79,62,37,30.46,30.37,30.21,10,6,0,25,17,31,0.14,3,Snow,4
2014-3-4,32,19,6,14,7,-1,80,64,38,30.38,30.27,30.18,10,10,6,8,2,,0.00,0,,52
2014-3-5,32,22,12,26,22,8,85,81,75,30.27,30.22,30.16,10,4,0,10,4,,0.00,7,Fog,47
2014-3-6,46,36,27,23,21,18,85,61,39,30.22,30.16,30.08,10,9,4,13,7,,0.00,0,,35
2014-3-7,45,34,23,29,25,18,82,69,49,30.09,30.04,29.99,10,8,4,7,1,,0.00,0,,173
2014-3-8,51,40,30,39,32,26,89,80,54,30.29,30.13,30.03,10,3,0,14,2,,0.02,5,Fog-Rain,329
2014-3-9,48,42,35,37,32,27,79,71,58,30.37,30.25,30.11,9,6,2,13,8,,0.00,2,,94
2014-3-10,64,50,35,48,39,32,89,75,54,30.11,29.96,29.81,10,5,1,17,9,24,0.00,1,,206
2014-3-11,73,58,43,56,48,37,80,68,55,29.80,29.66,29.50,10,10,7,17,8,23,0.00,0,,201
2014-3-12,62,50,36,55,33,19,81,57,28,30.16,29.84,29.47,10,10,9,31,18,43,0.00,5,,310
2014-3-13,62,46,30,36,30,24,79,57,34,30.24,30.13,30.04,10,10,10,15,4,17,0.00,0,,181
2014-3-14,61,52,45,42,37,33,74,59,49,30.03,29.99,29.94,10,10,8,22,11,32,0.01,1,Rain,204
2014-3-15,69,51,34,48,37,30,93,78,35,30.08,30.01,29.87,10,4,0,12,2,,0.00,4,Fog,133
2014-3-16,57,44,32,51,37,19,90,77,59,29.99,29.83,29.72,10,6,2,28,12,41,1.56,8,Rain,31
2014-3-17,46,37,28,34,25,17,79,65,58,29.98,29.90,29.82,10,10,10,22,12,28,0.00,4,,41
2014-3-18,57,44,32,43,36,28,85,71,56,29.89,29.79,29.66,10,8,2,21,6,26,0.00,2,,166
2014-3-19,59,52,45,43,35,30,77,54,36,30.17,29.95,29.73,10,10,10,20,10,29,0.00,1,,269
2014-3-20,64,48,32,35,32,27,82,55,29,30.20,30.12,30.02,10,10,8,16,4,,0.00,0,,195
2014-3-21,69,52,37,43,37,31,79,54,32,30.02,29.94,29.86,10,10,10,25,7,30,0.00,0,,209
2014-3-22,60,52,45,41,32,26,54,46,33,30.24,30.11,29.93,10,10,10,17,11,26,0.00,2,,24
2014-3-23,51,44,35,27,20,16,55,41,27,30.40,30.33,30.25,10,10,10,23,13,23,0.00,1,,22
2014-3-24,48,37,28,24,19,17,66,48,33,30.37,30.26,30.14,10,10,10,9,6,,0.00,2,,44
2014-3-25,46,40,30,28,19,9,79,49,24,30.32,30.23,30.15,10,10,10,18,9,28,0.00,3,,320
2014-3-26,52,38,25,28,20,16,75,48,26,30.40,30.27,30.08,10,10,10,15,5,20,0.00,1,Rain,151
2014-3-27,63,53,46,54,42,26,84,63,41,30.04,29.84,29.74,10,9,4,22,13,31,0.14,8,Rain,181
2014-3-28,66,58,48,56,48,41,83,68,47,30.04,29.88,29.75,10,10,4,22,13,38,0.23,5,Rain-Thunderstorm,321
2014-3-29,54,48,39,41,37,33,83,68,47,30.27,30.12,29.98,10,8,3,18,13,29,0.10,5,Rain,2
2014-3-30,61,45,30,41,34,27,85,70,46,30.32,30.23,30.10,10,6,2,10,2,,0.00,0,,150
2014-3-31,72,54,37,47,40,33,86,59,31,30.10,30.00,29.86,10,9,4,18,6,29,0.05,2,,183